createdAt,value
2023-02-08T00:01:23.919Z,100448.59
2023-02-08T00:03:52.348Z,100450.38
2023-02-08T00:06:20.457Z,100446.09
2023-02-08T00:08:48.034Z,100438.44
2023-02-08T00:11:15.349Z,100447.03
2023-02-08T00:13:43.146Z,100445.31
2023-02-08T00:16:13.313Z,100448.72
2023-02-08T00:18:41.648Z,100439.28
2023-02-08T00:21:15.629Z,100442.66
2023-02-08T00:23:43.623Z,100436.66
2023-02-08T00:26:11.266Z,100434.88
2023-02-08T00:28:38.845Z,100436.53
2023-02-08T00:31:06.958Z,100439.16
2023-02-08T00:33:34.668Z,100446.03
2023-02-08T00:36:05.524Z,100450.31
2023-02-08T00:38:33.747Z,100440.00
2023-02-08T00:41:01.336Z,100441.72
2023-02-08T00:43:29.233Z,100447.72
2023-02-08T00:45:59.369Z,100443.38
2023-02-08T00:48:28.239Z,100446.81
2023-02-08T00:51:05.125Z,100440.75
2023-02-08T00:53:40.864Z,100433.94
2023-02-08T00:56:09.840Z,100434.78
2023-02-08T00:58:38.142Z,100431.34
2023-02-08T01:01:07.826Z,100433.09
2023-02-08T01:03:39.426Z,100434.84
2023-02-08T01:06:11.228Z,100423.72
2023-02-08T01:08:38.969Z,100420.28
2023-02-08T01:11:10.815Z,100428.88
2023-02-08T01:13:39.993Z,100414.25
2023-02-08T01:16:21.285Z,100417.66
2023-02-08T01:18:53.179Z,100429.72
2023-02-08T01:21:25.150Z,100420.31
2023-02-08T01:23:53.560Z,100423.78
2023-02-08T01:26:22.996Z,100416.09
2023-02-08T01:28:51.981Z,100416.94
2023-02-08T01:31:24.431Z,100415.28
2023-02-08T01:33:52.191Z,100413.56
2023-02-08T01:36:19.785Z,100414.44
2023-02-08T01:38:48.499Z,100413.56
2023-02-08T01:41:26.372Z,100418.69
2023-02-08T01:44:11.488Z,100413.50
2023-02-08T01:46:42.460Z,100423.81
2023-02-08T01:49:37.987Z,100422.09
2023-02-08T01:52:20.939Z,100432.38
2023-02-08T01:55:23.050Z,100431.56
2023-02-08T01:57:56.569Z,100429.00
2023-02-08T02:00:25.068Z,100433.31
2023-02-08T02:02:56.909Z,100422.13
2023-02-08T02:05:32.650Z,100423.00
2023-02-08T02:08:00.671Z,100423.84
2023-02-08T02:10:33.231Z,100422.16
2023-02-08T02:13:13.784Z,100421.31
2023-02-08T02:15:44.321Z,100425.63
2023-02-08T02:18:18.043Z,100427.34
2023-02-08T02:20:48.299Z,100429.06
2023-02-08T02:23:53.517Z,100426.44
2023-02-08T02:26:35.868Z,100423.81
2023-02-08T02:29:14.680Z,100422.03
2023-02-08T02:32:16.152Z,100422.81
2023-02-08T02:35:26.259Z,100436.34
2023-02-08T02:38:05.634Z,100431.22
2023-02-08T02:41:14.225Z,100425.22
2023-02-08T02:43:58.993Z,100431.91
2023-02-08T02:46:43.814Z,100435.34
2023-02-08T02:49:26.411Z,100437.03
2023-02-08T02:52:27.936Z,100435.97
2023-02-08T02:55:07.784Z,100439.38
2023-02-08T02:57:36.696Z,100441.91
2023-02-08T03:00:14.117Z,100440.97
2023-02-08T03:02:42.233Z,100449.50
2023-02-08T03:05:12.403Z,100457.22
2023-02-08T03:08:07.236Z,100466.50
2023-02-08T03:11:08.286Z,100463.13
2023-02-08T03:14:12.030Z,100467.28
2023-02-08T03:17:19.702Z,100463.97
2023-02-08T03:19:57.059Z,100468.22
2023-02-08T03:22:44.503Z,100474.00
2023-02-08T03:25:27.667Z,100471.56
2023-02-08T03:28:41.490Z,100464.72
2023-02-08T03:31:42.077Z,100467.38
2023-02-08T03:34:18.544Z,100464.09
2023-02-08T03:37:04.470Z,100457.97
2023-02-08T03:39:34.876Z,100462.25
2023-02-08T03:42:12.461Z,100458.81
2023-02-08T03:44:48.411Z,100459.56
2023-02-08T03:47:25.141Z,100469.13
2023-02-08T03:49:57.531Z,100472.56
2023-02-08T03:52:26.703Z,100474.25
2023-02-08T03:55:18.822Z,100474.03
2023-02-08T03:58:26.260Z,100477.53
2023-02-08T04:01:03.975Z,100480.94
2023-02-08T04:03:34.051Z,100478.34
2023-02-08T04:06:02.122Z,100482.81
2023-02-08T04:08:29.476Z,100482.13
2023-02-08T04:10:58.345Z,100473.41
2023-02-08T04:13:27.131Z,100474.25
2023-02-08T04:15:54.733Z,100480.34
2023-02-08T04:18:22.638Z,100479.59
2023-02-08T04:20:50.138Z,100480.34
2023-02-08T04:23:17.399Z,100480.34
2023-02-08T04:25:44.906Z,100473.56
2023-02-08T04:28:12.253Z,100477.91
2023-02-08T04:30:40.225Z,100478.00
2023-02-08T04:33:07.687Z,100474.53
2023-02-08T04:35:35.301Z,100485.59
2023-02-08T04:38:02.572Z,100487.47
2023-02-08T04:40:31.205Z,100483.78
2023-02-08T04:42:58.562Z,100476.88
2023-02-08T04:45:27.177Z,100481.97
2023-02-08T04:47:54.449Z,100479.47
2023-02-08T04:50:22.107Z,100480.16
2023-02-08T04:52:49.331Z,100483.56
2023-02-08T04:55:16.997Z,100476.88
2023-02-08T04:57:44.249Z,100488.88
2023-02-08T05:00:12.956Z,100488.81
2023-02-08T05:02:40.229Z,100494.78
2023-02-08T05:05:08.112Z,100485.47
2023-02-08T05:07:35.401Z,100497.34
2023-02-08T05:10:05.155Z,100497.34
2023-02-08T05:12:32.511Z,100499.94
2023-02-08T05:15:00.078Z,100499.09
2023-02-08T05:17:27.354Z,100495.66
2023-02-08T05:19:54.970Z,100493.81
2023-02-08T05:22:22.315Z,100498.34
2023-02-08T05:24:49.940Z,100497.56
2023-02-08T05:27:17.256Z,100503.38
2023-02-08T05:29:44.816Z,100501.50
2023-02-08T05:32:13.094Z,100499.84
2023-02-08T05:34:40.686Z,100504.09
2023-02-08T05:37:08.047Z,100490.63
2023-02-08T05:39:35.634Z,100500.81
2023-02-08T05:42:02.987Z,100496.41
2023-02-08T05:44:30.658Z,100492.13
2023-02-08T05:46:57.929Z,100504.19
2023-02-08T05:49:25.679Z,100508.38
2023-02-08T05:51:53.328Z,100511.16
2023-02-08T05:54:20.982Z,100512.69
2023-02-08T05:56:48.369Z,100506.69
2023-02-08T05:59:15.972Z,100519.53
2023-02-08T06:01:43.229Z,100516.09
2023-02-08T06:04:11.208Z,100518.63
2023-02-08T06:06:38.553Z,100524.72
2023-02-08T06:09:06.116Z,100527.19
2023-02-08T06:11:34.202Z,100523.78
2023-02-08T06:14:02.336Z,100518.75
2023-02-08T06:16:30.064Z,100525.63
2023-02-08T06:18:57.803Z,100527.34
2023-02-08T06:21:25.119Z,100521.34
2023-02-08T06:23:52.621Z,100531.66
2023-02-08T06:26:20.051Z,100535.00
2023-02-08T06:28:47.663Z,100529.88
2023-02-08T06:31:14.930Z,100533.53
2023-02-08T06:33:42.577Z,100532.03
2023-02-08T06:36:10.031Z,100536.88
2023-02-08T06:38:37.662Z,100539.44
2023-02-08T06:41:05.117Z,100529.28
2023-02-08T06:43:35.424Z,100541.28
2023-02-08T06:46:05.029Z,100557.81
2023-02-08T06:48:32.639Z,100544.81
2023-02-08T06:50:59.992Z,100545.75
2023-02-08T06:53:27.836Z,100553.44
2023-02-08T06:55:55.417Z,100549.03
2023-02-08T06:58:23.051Z,100556.91
2023-02-08T07:00:50.448Z,100568.25
2023-02-08T07:03:18.083Z,100569.22
2023-02-08T07:06:02.522Z,100563.47
2023-02-08T07:08:34.188Z,100574.56
2023-02-08T07:11:11.787Z,100563.38
2023-02-08T07:13:39.874Z,100568.47
2023-02-08T07:16:09.900Z,100573.50
2023-02-08T07:18:37.669Z,100580.56
2023-02-08T07:21:05.387Z,100575.41
2023-02-08T07:23:33.230Z,100579.88
2023-02-08T07:26:07.664Z,100575.00
2023-02-08T07:28:36.525Z,100576.69
2023-02-08T07:31:13.808Z,100565.47
2023-02-08T07:33:41.708Z,100580.13
2023-02-08T07:36:10.857Z,100582.56
2023-02-08T07:38:39.713Z,100580.91
2023-02-08T07:41:10.815Z,100575.00
2023-02-08T07:43:40.493Z,100585.34
2023-02-08T07:46:17.206Z,100587.16
2023-02-08T07:48:45.164Z,100581.00
2023-02-08T07:51:13.497Z,100581.16
2023-02-08T07:53:41.265Z,100587.28
2023-02-08T07:56:14.643Z,100585.75
2023-02-08T07:58:42.251Z,100591.88
2023-02-08T08:01:21.516Z,100611.88
2023-02-08T08:03:53.914Z,100604.28
2023-02-08T08:06:22.870Z,100599.19
2023-02-08T08:08:51.308Z,100607.81
2023-02-08T08:11:20.776Z,100609.50
2023-02-08T08:13:48.750Z,100617.25
2023-02-08T08:16:16.463Z,100606.91
2023-02-08T08:18:44.763Z,100614.56
2023-02-08T08:21:13.177Z,100621.50
2023-02-08T08:23:41.094Z,100622.19
2023-02-08T08:26:18.302Z,100619.44
2023-02-08T08:28:46.962Z,100623.72
2023-02-08T08:31:18.663Z,100620.06
2023-02-08T08:33:47.087Z,100620.84
2023-02-08T08:36:15.379Z,100620.84
2023-02-08T08:38:42.928Z,100624.72
2023-02-08T08:41:14.929Z,100621.22
2023-02-08T08:43:42.858Z,100610.53
2023-02-08T08:46:10.751Z,100612.75
2023-02-08T08:48:39.085Z,100619.47
2023-02-08T08:51:07.188Z,100621.09
2023-02-08T08:53:35.258Z,100627.16
2023-02-08T08:56:03.252Z,100630.66
2023-02-08T08:58:30.977Z,100618.69
2023-02-08T09:01:00.352Z,100618.97
2023-02-08T09:03:29.586Z,100630.34
2023-02-08T09:05:57.296Z,100625.81
2023-02-08T09:08:24.968Z,100623.63
2023-02-08T09:10:52.353Z,100622.50
2023-02-08T09:13:21.363Z,100626.53
2023-02-08T09:15:50.132Z,100616.38
2023-02-08T09:18:18.007Z,100626.25
2023-02-08T09:20:45.738Z,100616.00
2023-02-08T09:23:14.637Z,100610.13
2023-02-08T09:25:42.130Z,100617.41
2023-02-08T09:28:10.999Z,100617.56
2023-02-08T09:30:38.345Z,100629.50
2023-02-08T09:33:05.979Z,100633.16
2023-02-08T09:35:33.447Z,100633.13
2023-02-08T09:38:04.598Z,100640.44
2023-02-08T09:40:52.038Z,100628.38
2023-02-08T09:43:41.953Z,100633.56
2023-02-08T09:46:18.466Z,100623.34
2023-02-08T09:48:50.615Z,100617.69
2023-02-08T09:51:50.085Z,100604.94
2023-02-08T09:54:28.834Z,100603.34
2023-02-08T09:56:59.897Z,100606.28
2023-02-08T09:59:32.583Z,100619.72
2023-02-08T10:02:31.460Z,100616.03
2023-02-08T10:05:01.894Z,100612.22
2023-02-08T10:07:31.174Z,100631.66
2023-02-08T10:10:08.352Z,100621.00
2023-02-08T10:12:55.019Z,100619.34
2023-02-08T10:15:46.408Z,100622.47
2023-02-08T10:18:47.136Z,100632.75
2023-02-08T10:21:54.792Z,100630.28
2023-02-08T10:24:36.930Z,100619.00
2023-02-08T10:27:16.309Z,100627.88
2023-02-08T10:30:45.416Z,100632.38
2023-02-08T10:33:35.811Z,100620.56
2023-02-08T10:36:12.203Z,100625.03
2023-02-08T10:38:46.682Z,100629.53
2023-02-08T10:41:32.492Z,100629.16
2023-02-08T10:44:30.627Z,100627.88
2023-02-08T10:47:06.885Z,100634.75
2023-02-08T10:50:00.065Z,100637.03
2023-02-08T10:52:28.085Z,100639.13
2023-02-08T10:54:59.168Z,100628.94
2023-02-08T10:57:35.673Z,100634.06
2023-02-08T11:00:21.436Z,100637.81
2023-02-08T11:02:53.237Z,100635.38
2023-02-08T11:05:38.962Z,100644.00
2023-02-08T11:08:20.758Z,100641.75
2023-02-08T11:11:10.481Z,100643.47
2023-02-08T11:13:51.510Z,100626.75
2023-02-08T11:16:28.967Z,100631.91
2023-02-08T11:19:02.429Z,100629.16
2023-02-08T11:21:41.126Z,100633.41
2023-02-08T11:24:08.644Z,100629.72
2023-02-08T11:26:41.389Z,100626.75
2023-02-08T11:29:19.804Z,100624.56
2023-02-08T11:32:00.528Z,100625.69
2023-02-08T11:34:38.905Z,100606.25
2023-02-08T11:37:26.684Z,100594.97
2023-02-08T11:39:58.113Z,100598.47
2023-02-08T11:42:34.977Z,100618.09
2023-02-08T11:45:03.419Z,100610.88
2023-02-08T11:47:37.714Z,100606.69
2023-02-08T11:50:09.111Z,100600.06
2023-02-08T11:52:43.496Z,100591.16
2023-02-08T11:55:19.757Z,100596.38
2023-02-08T11:58:12.762Z,100590.66
2023-02-08T12:00:41.326Z,100597.94
2023-02-08T12:03:18.621Z,100601.66
2023-02-08T12:06:40.805Z,100595.28
2023-02-08T12:09:25.287Z,100595.44
2023-02-08T12:12:09.000Z,100593.41
2023-02-08T12:15:03.528Z,100582.94
2023-02-08T12:17:41.944Z,100589.97
2023-02-08T12:20:33.148Z,100596.06
2023-02-08T12:23:00.416Z,100587.34
2023-02-08T12:25:46.317Z,100578.16
2023-02-08T12:28:23.010Z,100578.69
2023-02-08T12:31:04.525Z,100571.53
2023-02-08T12:34:01.411Z,100572.22
2023-02-08T12:36:48.609Z,100561.06
2023-02-08T12:40:02.414Z,100563.41
2023-02-08T12:43:03.024Z,100554.22
2023-02-08T12:46:19.286Z,100548.50
2023-02-08T12:48:49.847Z,100553.91
2023-02-08T12:51:53.549Z,100548.28
2023-02-08T12:55:03.824Z,100547.97
2023-02-08T12:57:33.242Z,100546.16
2023-02-08T13:00:15.852Z,100544.41
2023-02-08T13:02:57.749Z,100546.16
2023-02-08T13:05:35.616Z,100541.84
2023-02-08T13:08:30.153Z,100542.81
2023-02-08T13:11:19.056Z,100534.75
2023-02-08T13:14:00.750Z,100525.25
2023-02-08T13:16:39.548Z,100532.19
2023-02-08T13:19:34.491Z,100532.84
2023-02-08T13:22:05.062Z,100532.75
2023-02-08T13:24:39.132Z,100527.31
2023-02-08T13:27:11.091Z,100525.06
2023-02-08T13:29:38.804Z,100528.63
2023-02-08T13:32:29.818Z,100526.53
2023-02-08T13:35:16.263Z,100533.50
2023-02-08T13:37:54.601Z,100537.81
2023-02-08T13:40:28.603Z,100525.63
2023-02-08T13:43:05.211Z,100526.84
2023-02-08T13:45:42.497Z,100525.41
2023-02-08T13:48:17.190Z,100525.69
2023-02-08T13:50:57.033Z,100530.38
2023-02-08T13:53:39.812Z,100528.38
2023-02-08T13:56:13.052Z,100531.41
2023-02-08T13:58:49.630Z,100533.28
2023-02-08T14:01:30.620Z,100526.38
2023-02-08T14:04:12.737Z,100533.31
2023-02-08T14:06:54.111Z,100525.16
2023-02-08T14:10:17.251Z,100530.75
2023-02-08T14:13:09.304Z,100527.59
2023-02-08T14:15:43.557Z,100524.78
2023-02-08T14:18:27.170Z,100525.34
2023-02-08T14:21:07.627Z,100524.25
2023-02-08T14:23:40.487Z,100523.28
2023-02-08T14:26:24.244Z,100516.22
2023-02-08T14:28:59.968Z,100514.53
2023-02-08T14:31:45.279Z,100517.38
2023-02-08T14:34:38.163Z,100523.91
2023-02-08T14:37:34.144Z,100515.25
2023-02-08T14:40:24.906Z,100518.72
2023-02-08T14:43:01.529Z,100515.22
2023-02-08T14:45:36.695Z,100510.47
2023-02-08T14:48:10.064Z,100513.22
2023-02-08T14:51:03.461Z,100502.81
2023-02-08T14:53:42.494Z,100510.22
2023-02-08T14:56:24.334Z,100502.91
2023-02-08T14:59:15.356Z,100500.63
2023-02-08T15:01:46.931Z,100502.75
2023-02-08T15:04:18.438Z,100500.03
2023-02-08T15:07:19.429Z,100507.78
2023-02-08T15:09:47.564Z,100498.63
2023-02-08T15:12:35.871Z,100505.44
2023-02-08T15:15:05.567Z,100503.38
2023-02-08T15:17:41.465Z,100495.47
2023-02-08T15:20:26.148Z,100503.44
2023-02-08T15:23:21.649Z,100505.88
2023-02-08T15:26:04.982Z,100503.69
2023-02-08T15:28:36.478Z,100498.09
2023-02-08T15:31:15.043Z,100489.84
2023-02-08T15:33:43.849Z,100492.25
2023-02-08T15:36:36.704Z,100496.06
2023-02-08T15:39:23.248Z,100497.63
2023-02-08T15:41:51.281Z,100496.47
2023-02-08T15:44:26.102Z,100498.66
2023-02-08T15:46:55.306Z,100507.38
2023-02-08T15:49:35.734Z,100511.56
2023-02-08T15:52:05.971Z,100515.47
2023-02-08T15:54:33.853Z,100502.41
2023-02-08T15:57:54.037Z,100516.88
2023-02-08T16:00:34.878Z,100514.34
2023-02-08T16:03:18.173Z,100514.69
2023-02-08T16:05:59.701Z,100522.69
2023-02-08T16:08:32.997Z,100521.19
2023-02-08T16:11:20.241Z,100514.47
2023-02-08T16:13:52.888Z,100508.47
2023-02-08T16:16:40.022Z,100515.50
2023-02-08T16:19:29.929Z,100524.22
2023-02-08T16:22:15.849Z,100523.38
2023-02-08T16:24:43.640Z,100524.41
2023-02-08T16:27:27.525Z,100531.38
2023-02-08T16:29:55.696Z,100528.84
2023-02-08T16:32:37.017Z,100530.69
2023-02-08T16:35:29.662Z,100527.47
2023-02-08T16:38:02.941Z,100530.16
2023-02-08T16:40:54.124Z,100525.00
2023-02-08T16:43:26.117Z,100525.03
2023-02-08T16:46:12.431Z,100524.25
2023-02-08T16:48:49.129Z,100529.44
2023-02-08T16:51:26.622Z,100526.00
2023-02-08T16:54:07.028Z,100519.97
2023-02-08T16:56:41.500Z,100525.13
2023-02-08T16:59:11.379Z,100519.97
2023-02-08T17:01:39.973Z,100521.69
2023-02-08T17:04:07.388Z,100513.94
2023-02-08T17:06:38.557Z,100525.13
2023-02-08T17:09:09.205Z,100515.66
2023-02-08T17:11:37.457Z,100516.44
2023-02-08T17:14:06.103Z,100526.72
2023-02-08T17:16:36.465Z,100522.38
2023-02-08T17:19:05.528Z,100533.50
2023-02-08T17:21:33.530Z,100537.75
2023-02-08T17:24:01.884Z,100529.09
2023-02-08T17:26:45.878Z,100532.41
2023-02-08T17:29:13.919Z,100529.06
2023-02-08T17:31:41.751Z,100537.66
2023-02-08T17:34:09.141Z,100537.72
2023-02-08T17:36:37.872Z,100536.03
2023-02-08T17:39:06.606Z,100534.31
2023-02-08T17:41:35.502Z,100532.47
2023-02-08T17:44:04.285Z,100535.00
2023-02-08T17:46:32.693Z,100526.41
2023-02-08T17:49:01.880Z,100533.13
2023-02-08T17:51:30.813Z,100534.88
2023-02-08T17:53:58.314Z,100543.31
2023-02-08T17:56:28.757Z,100536.31
2023-02-08T17:58:56.454Z,100531.94
2023-02-08T18:01:27.231Z,100529.38
2023-02-08T18:03:55.277Z,100530.38
2023-02-08T18:06:25.148Z,100538.09
2023-02-08T18:08:54.682Z,100534.47
2023-02-08T18:11:24.219Z,100537.78
2023-02-08T18:13:54.489Z,100535.91
2023-02-08T18:16:28.868Z,100537.59
2023-02-08T18:18:59.572Z,100538.44
2023-02-08T18:21:30.235Z,100540.91
2023-02-08T18:24:04.924Z,100547.84
2023-02-08T18:26:34.681Z,100541.09
2023-02-08T18:29:03.001Z,100541.06
2023-02-08T18:31:31.894Z,100545.38
2023-02-08T18:33:59.402Z,100540.16
2023-02-08T18:36:27.123Z,100540.94
2023-02-08T18:38:55.890Z,100539.13
2023-02-08T18:41:27.734Z,100544.28
2023-02-08T18:43:57.724Z,100542.53
2023-02-08T18:46:29.081Z,100542.44
2023-02-08T18:48:56.657Z,100533.75
2023-02-08T18:51:26.409Z,100535.34
2023-02-08T18:53:55.828Z,100532.91
2023-02-08T18:56:27.419Z,100525.19
2023-02-08T18:58:59.961Z,100517.47
2023-02-08T19:01:27.900Z,100518.25
2023-02-08T19:03:56.131Z,100521.59
2023-02-08T19:06:28.670Z,100513.94
2023-02-08T19:08:59.271Z,100514.69
2023-02-08T19:11:41.786Z,100523.13
2023-02-08T19:14:14.794Z,100513.63
2023-02-08T19:16:43.272Z,100516.69
2023-02-08T19:19:11.044Z,100514.13
2023-02-08T19:21:39.585Z,100508.88
2023-02-08T19:24:07.587Z,100508.88
2023-02-08T19:26:40.007Z,100500.41
2023-02-08T19:29:13.560Z,100501.38
2023-02-08T19:31:42.895Z,100504.84
2023-02-08T19:34:11.852Z,100499.72
2023-02-08T19:36:49.632Z,100509.09
2023-02-08T19:39:22.382Z,100504.84
2023-02-08T19:41:52.819Z,100503.22
2023-02-08T19:44:21.923Z,100497.16
2023-02-08T19:46:52.893Z,100494.63
2023-02-08T19:49:22.678Z,100486.00
2023-02-08T19:51:50.304Z,100493.69
2023-02-08T19:54:20.061Z,100485.19
2023-02-08T19:56:50.352Z,100488.47
2023-02-08T19:59:26.913Z,100486.34
2023-02-08T20:01:55.512Z,100488.06
2023-02-08T20:04:24.452Z,100487.34
2023-02-08T20:06:54.255Z,100489.88
2023-02-08T20:09:22.779Z,100487.34
2023-02-08T20:11:59.729Z,100484.81
2023-02-08T20:14:30.507Z,100485.59
2023-02-08T20:16:59.452Z,100488.09
2023-02-08T20:19:27.022Z,100482.94
2023-02-08T20:21:54.874Z,100482.13
2023-02-08T20:24:22.335Z,100485.53
2023-02-08T20:26:50.638Z,100482.13
2023-02-08T20:29:18.766Z,100476.84
2023-02-08T20:31:53.662Z,100478.56
2023-02-08T20:34:21.681Z,100475.22
2023-02-08T20:37:05.812Z,100467.50
2023-02-08T20:39:35.982Z,100465.81
2023-02-08T20:42:04.116Z,100466.66
2023-02-08T20:44:31.965Z,100454.47
2023-02-08T20:46:59.671Z,100457.91
2023-02-08T20:49:27.134Z,100450.13
2023-02-08T20:51:55.259Z,100450.16
2023-02-08T20:54:26.664Z,100446.53
2023-02-08T20:56:54.673Z,100443.09
2023-02-08T20:59:23.463Z,100440.41
2023-02-08T21:01:51.939Z,100442.09
2023-02-08T21:04:23.309Z,100442.03
2023-02-08T21:06:52.179Z,100440.25
2023-02-08T21:09:20.512Z,100434.34
2023-02-08T21:11:48.235Z,100425.66
2023-02-08T21:14:21.029Z,100428.25
2023-02-08T21:16:51.916Z,100429.97
2023-02-08T21:19:20.856Z,100425.69
2023-02-08T21:21:58.496Z,100417.06
2023-02-08T21:24:26.559Z,100423.03
2023-02-08T21:26:56.793Z,100420.56
2023-02-08T21:29:25.311Z,100411.88
2023-02-08T21:31:57.592Z,100408.31
2023-02-08T21:34:25.090Z,100414.13
2023-02-08T21:36:52.868Z,100410.84
2023-02-08T21:39:20.426Z,100410.03
2023-02-08T21:41:51.876Z,100421.75
2023-02-08T21:44:19.441Z,100411.50
2023-02-08T21:46:46.997Z,100407.44
2023-02-08T21:49:33.094Z,100414.88
2023-02-08T21:52:19.515Z,100418.22
2023-02-08T21:54:53.146Z,100416.28
2023-02-08T21:57:24.360Z,100425.63
2023-02-08T21:59:57.122Z,100424.06
2023-02-08T22:02:28.815Z,100430.59
2023-02-08T22:05:01.282Z,100428.19
2023-02-08T22:07:43.846Z,100429.63
2023-02-08T22:10:13.835Z,100428.78
2023-02-08T22:12:42.054Z,100416.97
2023-02-08T22:15:13.092Z,100425.50
2023-02-08T22:17:40.678Z,100422.88
2023-02-08T22:20:09.802Z,100427.91
2023-02-08T22:22:37.814Z,100425.44
2023-02-08T22:25:05.911Z,100421.97
2023-02-08T22:27:33.605Z,100420.47
2023-02-08T22:30:00.870Z,100414.41
2023-02-08T22:32:28.459Z,100414.97
2023-02-08T22:34:55.932Z,100419.88
2023-02-08T22:37:23.978Z,100418.97
2023-02-08T22:39:51.375Z,100420.69
2023-02-08T22:42:19.126Z,100419.88
2023-02-08T22:44:46.456Z,100415.72
2023-02-08T22:47:14.401Z,100408.75
2023-02-08T22:49:41.833Z,100404.47
2023-02-08T22:52:10.212Z,100397.50
2023-02-08T22:54:37.809Z,100402.75
2023-02-08T22:57:09.795Z,100392.56
2023-02-08T22:59:40.506Z,100387.56
2023-02-08T23:02:08.231Z,100394.31
2023-02-08T23:04:37.787Z,100392.56
2023-02-08T23:07:05.709Z,100398.34
2023-02-08T23:09:33.058Z,100387.28
2023-02-08T23:12:00.711Z,100393.41
2023-02-08T23:14:28.341Z,100385.34
2023-02-08T23:16:56.405Z,100387.16
2023-02-08T23:19:24.220Z,100381.75
2023-02-08T23:21:52.008Z,100391.19
2023-02-08T23:24:19.537Z,100378.28
2023-02-08T23:26:47.831Z,100378.25
2023-02-08T23:29:15.155Z,100385.72
2023-02-08T23:31:42.915Z,100378.88
2023-02-08T23:34:11.547Z,100381.44
2023-02-08T23:36:39.766Z,100381.31
2023-02-08T23:39:08.182Z,100384.56
2023-02-08T23:41:36.267Z,100377.00
2023-02-08T23:44:04.327Z,100383.75
2023-02-08T23:46:32.518Z,100374.31
2023-02-08T23:48:59.951Z,100374.13
2023-02-08T23:51:27.741Z,100364.16
2023-02-08T23:53:55.393Z,100363.22
2023-02-08T23:56:28.933Z,100363.34
2023-02-08T23:58:59.052Z,100362.63
